createdAt,value
2018-06-22T00:03:38.657Z,7.10
2018-06-22T00:08:17.426Z,6.43
2018-06-22T00:12:56.400Z,8.60
2018-06-22T00:17:35.157Z,6.93
2018-06-22T00:22:14.988Z,7.10
2018-06-22T00:26:53.638Z,7.17
2018-06-22T00:31:33.551Z,6.67
2018-06-22T00:36:12.177Z,7.27
2018-06-22T00:40:54.847Z,6.97
2018-06-22T00:45:33.463Z,7.60
2018-06-22T00:50:16.029Z,8.17
2018-06-22T00:54:54.728Z,8.70
2018-06-22T00:59:38.723Z,8.23
2018-06-22T01:04:17.439Z,8.67
2018-06-22T01:08:59.940Z,8.70
2018-06-22T01:13:39.046Z,8.63
2018-06-22T01:18:18.713Z,9.13
2018-06-22T01:22:57.349Z,9.30
2018-06-22T01:27:36.018Z,9.27
2018-06-22T01:32:18.235Z,8.80
2018-06-22T01:36:56.812Z,8.80
2018-06-22T01:41:36.612Z,8.27
2018-06-22T01:46:15.347Z,8.83
2018-06-22T01:50:56.875Z,8.07
2018-06-22T01:55:35.391Z,7.80
2018-06-22T02:00:17.504Z,8.70
2018-06-22T02:04:56.004Z,8.10
2018-06-22T02:09:35.804Z,8.43
2018-06-22T02:14:14.377Z,8.07
2018-06-22T02:18:58.728Z,8.27
2018-06-22T02:23:37.248Z,7.70
2018-06-22T02:28:16.049Z,8.77
2018-06-22T02:32:54.673Z,8.50
2018-06-22T02:37:33.376Z,8.70
2018-06-22T02:42:12.018Z,8.83
2018-06-22T02:46:50.478Z,8.43
2018-06-22T02:51:29.965Z,8.63
2018-06-22T02:56:08.452Z,9.13
2018-06-22T03:00:51.607Z,8.93
2018-06-22T03:05:30.114Z,7.43
2018-06-22T03:10:12.310Z,8.17
2018-06-22T03:14:50.666Z,7.40
2018-06-22T03:19:29.347Z,7.50
2018-06-22T03:24:07.786Z,8.50
2018-06-22T03:28:47.447Z,7.40
2018-06-22T03:33:26.042Z,7.80
2018-06-22T03:38:08.628Z,8.30
2018-06-22T03:42:47.221Z,7.53
2018-06-22T03:47:25.048Z,7.80
2018-06-22T03:52:03.634Z,7.10
2018-06-22T03:56:42.273Z,7.37
2018-06-22T04:01:22.047Z,9.67
2018-06-22T04:06:00.718Z,9.50
2018-06-22T04:10:42.436Z,9.43
2018-06-22T04:15:21.121Z,8.40
2018-06-22T04:20:00.751Z,11.23
2018-06-22T04:24:39.362Z,22.17
2018-06-22T04:29:21.102Z,22.37
2018-06-22T04:33:59.732Z,17.23
2018-06-22T04:38:39.370Z,18.87
2018-06-22T04:43:17.820Z,16.57
2018-06-22T04:47:59.849Z,16.23
2018-06-22T04:52:38.394Z,15.07
2018-06-22T04:57:18.188Z,15.27
2018-06-22T05:01:56.805Z,15.70
2018-06-22T05:06:35.370Z,15.00
2018-06-22T05:11:17.041Z,16.40
2018-06-22T05:15:56.141Z,17.33
2018-06-22T05:20:38.291Z,20.10
2018-06-22T05:25:16.785Z,18.80
2018-06-22T05:29:59.747Z,19.70
2018-06-22T05:34:38.557Z,18.47
2018-06-22T05:39:17.299Z,18.13
2018-06-22T05:43:55.834Z,17.73
2018-06-22T05:48:37.433Z,18.17
2018-06-22T05:53:15.943Z,16.90
2018-06-22T05:57:55.744Z,16.83
2018-06-22T06:02:34.209Z,16.10
2018-06-22T06:07:13.817Z,14.30
2018-06-22T06:11:52.318Z,14.20
2018-06-22T06:16:30.905Z,13.30
2018-06-22T06:21:10.573Z,12.93
2018-06-22T06:25:49.133Z,13.53
2018-06-22T06:30:33.802Z,13.60
2018-06-22T06:35:12.362Z,12.97
2018-06-22T06:39:56.602Z,13.13
2018-06-22T06:44:35.142Z,11.90
2018-06-22T06:49:17.840Z,10.73
2018-06-22T06:53:56.441Z,10.70
2018-06-22T06:58:34.921Z,11.07
2018-06-22T07:03:13.576Z,10.70
2018-06-22T07:07:55.934Z,9.47
2018-06-22T07:12:34.379Z,9.47
2018-06-22T07:17:17.753Z,7.57
2018-06-22T07:21:56.312Z,7.47
2018-06-22T07:26:34.650Z,8.00
2018-06-22T07:31:16.646Z,7.63
2018-06-22T07:35:55.130Z,8.40
2018-06-22T07:40:36.889Z,8.87
2018-06-22T07:45:15.519Z,8.90
2018-06-22T07:49:54.884Z,8.17
2018-06-22T07:54:33.461Z,7.83
2018-06-22T07:59:15.438Z,8.10
2018-06-22T08:03:53.940Z,8.20
2018-06-22T08:08:36.048Z,7.70
2018-06-22T08:13:14.485Z,8.43
2018-06-22T08:17:53.154Z,8.68
2018-06-22T08:22:31.737Z,7.87
2018-06-22T08:27:11.238Z,7.60
2018-06-22T08:31:49.677Z,8.57
2018-06-22T08:36:28.223Z,8.53
2018-06-22T08:41:07.801Z,8.40
2018-06-22T08:45:46.352Z,8.10
2018-06-22T08:50:28.536Z,8.60
2018-06-22T08:55:07.114Z,8.00
2018-06-22T08:59:50.954Z,8.30
2018-06-22T09:04:29.568Z,6.85
2018-06-22T09:09:08.977Z,6.50
2018-06-22T09:13:47.590Z,6.72
2018-06-22T09:18:26.214Z,7.12
2018-06-22T09:23:04.849Z,7.40
2018-06-22T09:27:44.723Z,6.00
2018-06-22T09:32:23.301Z,6.55
2018-06-22T09:37:02.866Z,7.30
2018-06-22T09:41:41.513Z,6.70
2018-06-22T09:46:19.875Z,6.53
2018-06-22T09:51:01.933Z,6.30
2018-06-22T09:55:40.517Z,6.92
2018-06-22T10:00:23.621Z,5.90
2018-06-22T10:05:02.144Z,6.17
2018-06-22T10:09:44.463Z,6.28
2018-06-22T10:14:23.061Z,5.47
2018-06-22T10:19:01.833Z,5.67
2018-06-22T10:23:40.448Z,6.08
2018-06-22T10:28:20.228Z,4.67
2018-06-22T10:32:58.777Z,4.22
2018-06-22T10:37:40.629Z,5.67
2018-06-22T10:42:19.601Z,5.90
2018-06-22T10:46:58.469Z,6.57
2018-06-22T10:51:37.034Z,7.30
2018-06-22T10:56:15.387Z,7.53
2018-06-22T11:00:53.714Z,6.40
2018-06-22T11:05:32.180Z,6.70
2018-06-22T11:10:10.730Z,6.93
2018-06-22T11:14:49.289Z,6.40
2018-06-22T11:19:33.763Z,6.97
2018-06-22T11:24:12.353Z,6.97
2018-06-22T11:28:51.072Z,6.10
2018-06-22T11:33:29.874Z,5.23
2018-06-22T11:38:11.411Z,5.10
2018-06-22T11:42:49.942Z,5.00
2018-06-22T11:47:34.803Z,4.80
2018-06-22T11:52:13.362Z,5.27
2018-06-22T11:56:55.425Z,7.60
2018-06-22T12:01:34.062Z,7.20
2018-06-22T12:06:12.679Z,6.13
2018-06-22T12:10:51.255Z,5.93
2018-06-22T12:15:29.730Z,6.43
2018-06-22T12:20:09.522Z,7.33
2018-06-22T12:24:48.029Z,7.83
2018-06-22T12:29:33.133Z,7.40
2018-06-22T12:34:11.716Z,5.33
2018-06-22T12:38:53.564Z,4.57
2018-06-22T12:43:32.270Z,3.67
2018-06-22T12:48:12.996Z,3.87
2018-06-22T12:52:51.574Z,3.87
2018-06-22T12:57:30.187Z,3.90
2018-06-22T13:02:08.686Z,3.90
2018-06-22T13:06:50.737Z,3.83
2018-06-22T13:11:29.242Z,4.30
2018-06-22T13:16:07.765Z,4.23
2018-06-22T13:20:46.366Z,5.23
2018-06-22T13:25:25.001Z,6.07
2018-06-22T13:30:07.078Z,5.60
2018-06-22T13:34:45.563Z,6.50
2018-06-22T13:39:25.208Z,6.70
2018-06-22T13:44:03.742Z,5.77
2018-06-22T13:48:45.767Z,5.87
2018-06-22T13:53:24.400Z,6.67
2018-06-22T13:58:03.084Z,7.70
2018-06-22T14:02:41.833Z,7.70
2018-06-22T14:07:22.042Z,7.73
2018-06-22T14:12:00.766Z,6.23
2018-06-22T14:16:43.390Z,4.73
2018-06-22T14:21:23.007Z,4.90
2018-06-22T14:26:02.717Z,4.47
2018-06-22T14:30:41.457Z,4.37
2018-06-22T14:35:19.993Z,4.90
2018-06-22T14:40:00.044Z,4.23
2018-06-22T14:44:38.705Z,4.83
2018-06-22T14:49:17.614Z,6.80
2018-06-22T14:54:02.494Z,6.20
2018-06-22T14:58:47.368Z,7.93
2018-06-22T15:03:31.593Z,6.97
2018-06-22T15:08:14.667Z,5.27
2018-06-22T15:12:53.283Z,5.43
2018-06-22T15:17:41.691Z,5.20
2018-06-22T15:22:20.303Z,5.43
2018-06-22T15:26:59.455Z,5.20
2018-06-22T15:31:37.964Z,4.83
2018-06-22T15:36:23.075Z,5.50
2018-06-22T15:41:06.960Z,5.53
2018-06-22T15:45:53.876Z,5.57
2018-06-22T15:50:37.604Z,6.23
2018-06-22T15:55:22.294Z,6.30
2018-06-22T16:00:01.137Z,7.60
2018-06-22T16:04:39.739Z,7.57
2018-06-22T16:09:22.515Z,8.97
2018-06-22T16:14:06.484Z,9.27
2018-06-22T16:18:50.838Z,25.80
2018-06-22T16:23:34.655Z,7.97
2018-06-22T16:28:16.467Z,7.23
2018-06-22T16:32:54.988Z,8.70
2018-06-22T16:37:34.691Z,7.70
2018-06-22T16:42:13.149Z,6.80
2018-06-22T16:46:55.686Z,15.93
2018-06-22T16:51:34.839Z,26.17
2018-06-22T16:56:14.530Z,38.67
2018-06-22T17:00:53.590Z,45.83
2018-06-22T17:05:37.651Z,12.57
2018-06-22T17:10:21.592Z,33.67
2018-06-22T17:15:05.515Z,24.13
2018-06-22T17:19:45.249Z,15.00
2018-06-22T17:24:23.875Z,10.23
2018-06-22T17:29:05.962Z,11.57
2018-06-22T17:33:44.698Z,9.43
2018-06-22T17:38:26.641Z,8.10
2018-06-22T17:43:05.295Z,7.03
2018-06-22T17:47:48.519Z,8.37
2018-06-22T17:52:27.069Z,7.70
2018-06-22T17:57:10.248Z,8.03
2018-06-22T18:01:54.967Z,8.20
2018-06-22T18:06:38.074Z,8.57
2018-06-22T18:11:21.813Z,9.83
2018-06-22T18:16:01.437Z,10.80
2018-06-22T18:20:39.962Z,10.60
2018-06-22T18:25:19.394Z,10.27
2018-06-22T18:29:57.991Z,12.40
2018-06-22T18:34:37.097Z,18.57
2018-06-22T18:39:15.690Z,15.97
2018-06-22T18:43:58.961Z,16.03
2018-06-22T18:48:37.538Z,17.00
2018-06-22T18:53:21.462Z,13.13
2018-06-22T18:58:05.771Z,14.97
2018-06-22T19:02:50.639Z,17.83
2018-06-22T19:07:29.343Z,14.13
2018-06-22T19:12:07.936Z,7.70
2018-06-22T19:16:46.573Z,7.60
2018-06-22T19:21:25.472Z,8.33
2018-06-22T19:26:04.071Z,6.90
2018-06-22T19:30:42.690Z,8.67
2018-06-22T19:35:21.312Z,6.93
2018-06-22T19:40:00.050Z,10.03
2018-06-22T19:44:43.836Z,5.77
2018-06-22T19:49:28.876Z,17.80
2018-06-22T19:54:08.686Z,8.77
2018-06-22T19:58:50.687Z,12.87
2018-06-22T20:03:29.964Z,9.37
2018-06-22T20:08:12.474Z,7.57
2018-06-22T20:12:51.174Z,7.30
2018-06-22T20:17:32.794Z,7.40
2018-06-22T20:22:11.208Z,7.70
2018-06-22T20:26:52.813Z,6.43
2018-06-22T20:31:36.773Z,7.20
2018-06-22T20:36:20.765Z,7.70
2018-06-22T20:41:04.689Z,7.30
2018-06-22T20:45:48.786Z,7.87
2018-06-22T20:50:32.290Z,7.50
2018-06-22T20:55:11.134Z,8.77
2018-06-22T20:59:50.373Z,9.73
2018-06-22T21:04:29.556Z,9.50
2018-06-22T21:09:10.259Z,10.87
2018-06-22T21:13:48.659Z,11.53
2018-06-22T21:18:27.354Z,11.23
2018-06-22T21:23:06.054Z,8.33
2018-06-22T21:27:50.953Z,6.80
2018-06-22T21:32:34.679Z,7.80
2018-06-22T21:37:24.166Z,6.93
2018-06-22T21:42:02.711Z,7.07
2018-06-22T21:46:42.375Z,6.17
2018-06-22T21:51:20.956Z,6.67
2018-06-22T21:56:00.749Z,6.57
2018-06-22T22:00:39.359Z,6.57
2018-06-22T22:05:18.980Z,6.20
2018-06-22T22:09:57.601Z,5.80
2018-06-22T22:14:36.110Z,5.80
2018-06-22T22:19:14.792Z,5.13
2018-06-22T22:23:53.341Z,5.80
2018-06-22T22:28:35.793Z,5.70
2018-06-22T22:33:14.234Z,5.77
2018-06-22T22:37:53.872Z,5.97
2018-06-22T22:42:32.403Z,5.77
2018-06-22T22:47:14.106Z,6.17
2018-06-22T22:51:52.608Z,5.83
2018-06-22T22:56:32.075Z,5.27
2018-06-22T23:01:10.377Z,5.47
2018-06-22T23:05:52.139Z,5.27
2018-06-22T23:10:30.671Z,5.43
2018-06-22T23:15:12.655Z,5.30
2018-06-22T23:19:51.154Z,5.90
2018-06-22T23:24:29.552Z,5.30
2018-06-22T23:29:08.136Z,5.33
2018-06-22T23:33:46.679Z,4.93
2018-06-22T23:38:29.029Z,5.20
2018-06-22T23:43:07.386Z,5.30
2018-06-22T23:47:49.518Z,5.77
2018-06-22T23:52:28.116Z,5.53
2018-06-22T23:57:07.762Z,5.30
